createdAt,value
2023-04-23T00:00:02.442Z,0
2023-04-23T00:15:02.746Z,0
2023-04-23T00:30:03.171Z,0
2023-04-23T00:45:02.624Z,0
2023-04-23T01:00:03.044Z,0
2023-04-23T01:15:02.488Z,0
2023-04-23T01:30:02.916Z,0
2023-04-23T01:45:02.462Z,0
2023-04-23T02:00:02.766Z,0
2023-04-23T02:15:03.401Z,0
2023-04-23T02:30:02.677Z,0
2023-04-23T02:45:03.108Z,0
2023-04-23T03:00:02.522Z,0
2023-04-23T03:15:02.982Z,0
2023-04-23T03:30:02.493Z,0
2023-04-23T03:45:02.871Z,0
2023-04-23T04:00:02.481Z,0
2023-04-23T04:15:02.732Z,0
2023-04-23T04:30:02.214Z,0
2023-04-23T04:45:02.626Z,4
2023-04-23T05:00:03.041Z,12
2023-04-23T05:15:02.542Z,44
2023-04-23T05:30:02.932Z,34
2023-04-23T05:45:02.537Z,55
2023-04-23T06:00:02.832Z,211
2023-04-23T06:15:02.492Z,115
2023-04-23T06:30:02.717Z,100
2023-04-23T06:45:05.326Z,280
2023-04-23T07:00:02.612Z,301
2023-04-23T07:15:03.079Z,328
2023-04-23T07:30:02.537Z,359
2023-04-23T07:45:02.924Z,403
2023-04-23T08:00:02.535Z,447
2023-04-23T08:15:02.801Z,525
2023-04-23T08:30:02.249Z,274
2023-04-23T08:45:02.672Z,309
2023-04-23T09:00:03.125Z,418
2023-04-23T09:15:02.568Z,585
2023-04-23T09:30:03.035Z,512
2023-04-23T09:45:02.545Z,625
2023-04-23T10:00:13.285Z,675
2023-04-23T10:15:02.584Z,617
2023-04-23T10:45:09.993Z,149
2023-04-23T11:00:02.666Z,221
2023-04-23T11:15:03.144Z,322
2023-04-23T11:30:02.579Z,236
2023-04-23T11:45:02.981Z,361
2023-04-23T12:00:02.567Z,429
2023-04-23T12:15:02.880Z,330
2023-04-23T12:30:04.077Z,427
2023-04-23T12:45:02.742Z,299
2023-04-23T13:00:03.215Z,385
2023-04-23T13:15:02.626Z,254
2023-04-23T13:30:03.077Z,258
2023-04-23T13:45:02.619Z,249
2023-04-23T14:00:02.961Z,409
2023-04-23T14:15:02.590Z,242
2023-04-23T14:30:02.844Z,64
2023-04-23T14:45:02.289Z,102
2023-04-23T15:00:02.718Z,174
2023-04-23T15:15:03.100Z,192
2023-04-23T15:30:02.596Z,180
2023-04-23T15:45:03.027Z,191
2023-04-23T16:00:02.633Z,125
2023-04-23T16:15:02.897Z,94
2023-04-23T16:30:02.361Z,75
2023-04-23T16:45:02.797Z,60
2023-04-23T17:00:03.233Z,46
2023-04-23T17:15:02.684Z,5
2023-04-23T17:30:03.133Z,5
2023-04-23T17:45:02.631Z,0
2023-04-23T18:00:02.976Z,3
2023-04-23T18:15:02.634Z,3
2023-04-23T18:30:02.857Z,0
2023-04-23T18:45:02.265Z,0
2023-04-23T19:00:02.744Z,0
2023-04-23T19:15:03.163Z,0
2023-04-23T19:30:02.627Z,0
2023-04-23T19:45:03.080Z,0
2023-04-23T20:00:02.646Z,0
2023-04-23T20:15:02.908Z,0
2023-04-23T20:30:02.390Z,0
2023-04-23T20:45:02.827Z,0
2023-04-23T21:00:02.240Z,0
2023-04-23T21:15:02.697Z,0
2023-04-23T21:30:03.115Z,0
2023-04-23T21:45:02.697Z,0
2023-04-23T22:00:03.009Z,0
2023-04-23T22:15:02.671Z,0
2023-04-23T22:30:02.900Z,0
2023-04-23T22:45:02.327Z,0
2023-04-23T23:00:02.763Z,0
2023-04-23T23:15:03.190Z,0
2023-04-23T23:30:02.686Z,0
2023-04-23T23:45:03.080Z,0
